Pagina principale
METAR-TAF:

METAR-TAF

Aeroporti :

Aeroporto di Reggio Calabria

Reggio Calabria, Italia

latitudine: 38-04N, longitudine: 015-39E, altezza: 11 m

Osservazione

Il bollettino è stato emesso 43 minuti fa, alle 15:50 UTC
Vento 8 kt da sud
Temperature 16°C
Umidità 72%
Pressione 1015 hPa
Visibilità 10 km o più

METAR: LICR 061550Z AUTO 19008KT 9999 OVC190/// 16/11 Q1015

Ora: 17:33 (16:33 UTC)

Previsione

Il bollettino è stato emesso 5 ore e 33 minuti fa, alle 11:00 UTC
Previsione valida dal 06 alle 12 UTC al 07 alle 12 UTC
Vento 10 kt da sud
Visibilità 10 km o più
Nubi sparse ad un'altezza di 3000 ft
Evoluzione graduale
dal 07 alle 07 UTC al 07 alle 09 UTC
Vento 7 kt da nord/nord-ovest

TAF: LICR 061100Z 0612/0712 19010KT 9999 SCT030 BECMG 0707/0709 33007KT

Osservazioni e previsioni meteorologiche di più di 4000 aeroporti (messaggi METAR e TAF).

Le stazioni disponibili sono rappresentate dai dischi gialli e rossi sulla carta.

Puntare il mouse per vedere il nome della stazione.

Clicca sopra per visualizzare le osservazioni e previsioni meteorologiche.

Per cambiare la mappa : fare clic sui pulsanti verdi con una croce nera per ingrandire, il pulsante verde con un trattino per diminuire, o sulla freccia verde per le mappe adiacenti.


METAR-TAF: